Time;durP1;ratioP1;P1;durP2;ratioP2;P2;SDS_P1;SDS_P2;PMS_P1;PMS_P2;Temp;Humidity;BMP_temperature;BMP_pressure;BME280_temperature;BME280_humidity;BME280_pressure;Samples;Min_cycle;Max_cycle;Signal;HPM_P1;HPM_P2
2022/08/03 00:02:03;;;;;;;;;;;25.80;48.00;;;;;;5025221;28;19933;-70
2022/08/03 00:04:30;;;;;;;;;;;25.80;48.10;;;;;;5032793;28;19951;-67
2022/08/03 00:06:56;;;;;;;;;;;25.70;48.00;;;;;;5034051;28;19932;-69
2022/08/03 00:09:23;;;;;;;;;;;25.70;48.00;;;;;;5034715;28;19935;-71
2022/08/03 00:11:50;;;;;;;;;;;25.60;48.20;;;;;;5035779;28;19941;-70
2022/08/03 00:14:17;;;;;;;;;;;25.60;48.40;;;;;;5027759;28;19921;-69
2022/08/03 00:16:44;;;;;;;;;;;25.60;48.50;;;;;;5019938;28;19932;-72
2022/08/03 00:19:10;;;;;;;;;;;25.50;48.40;;;;;;5018892;28;19929;-72
2022/08/03 00:21:37;;;;;;;;;;;25.50;48.50;;;;;;5029888;28;19928;-70
2022/08/03 00:24:04;;;;;;;;;;;25.50;48.70;;;;;;5036155;28;19994;-70
2022/08/03 00:26:31;;;;;;;;;;;25.50;48.70;;;;;;5044110;28;19929;-70
2022/08/03 00:28:58;;;;;;;;;;;25.50;48.90;;;;;;5034573;28;19931;-69
2022/08/03 00:31:25;;;;;;;;;;;25.40;48.90;;;;;;5019394;28;19933;-69
2022/08/03 00:33:51;;;;;;;;;;;25.40;49.00;;;;;;5018653;28;19930;-69
2022/08/03 00:36:18;;;;;;;;;;;25.30;49.20;;;;;;5019602;28;19940;-70
2022/08/03 00:38:45;;;;;;;;;;;25.30;49.20;;;;;;5039496;28;20419;-70
2022/08/03 00:41:11;;;;;;;;;;;25.30;49.30;;;;;;5031229;28;19932;-70
2022/08/03 00:43:38;;;;;;;;;;;25.20;49.50;;;;;;5021869;28;19925;-70
2022/08/03 00:46:05;;;;;;;;;;;25.20;49.40;;;;;;5019736;28;19929;-70
2022/08/03 00:48:32;;;;;;;;;;;25.20;49.50;;;;;;5034635;28;19924;-70
2022/08/03 00:50:59;;;;;;;;;;;25.10;49.70;;;;;;5025663;28;19925;-69
2022/08/03 00:53:25;;;;;;;;;;;25.10;49.70;;;;;;5020991;28;20409;-70
2022/08/03 00:55:52;;;;;;;;;;;25.10;49.70;;;;;;5040962;28;19932;-70
2022/08/03 00:58:19;;;;;;;;;;;25.10;49.90;;;;;;5027525;28;19936;-70
2022/08/03 01:00:45;;;;;;;;;;;25.00;50.00;;;;;;5023835;28;19925;-70
2022/08/03 01:03:13;;;;;;;;;;;25.00;50.10;;;;;;5025941;28;20580;-70
2022/08/03 01:05:42;;;;;;;;;;;24.90;50.20;;;;;;5036391;28;19929;-69
2022/08/03 01:08:15;;;;;;;;;;;24.90;50.40;;;;;;5022192;28;20401;-69
2022/08/03 01:10:46;;;;;;;;;;;24.90;50.40;;;;;;5038297;28;20360;-72
2022/08/03 01:13:17;;;;;;;;;;;24.90;50.40;;;;;;5039106;28;19932;-69
2022/08/03 01:15:46;;;;;;;;;;;24.80;50.40;;;;;;5021055;28;19934;-72
2022/08/03 01:18:17;;;;;;;;;;;24.80;50.60;;;;;;5021115;28;19925;-70
2022/08/03 01:20:45;;;;;;;;;;;24.80;50.70;;;;;;5023385;28;19933;-70
2022/08/03 01:23:32;;;;;;;;;;;24.70;50.70;;;;;;5040199;28;20008;-70
2022/08/03 01:26:09;;;;;;;;;;;24.70;50.80;;;;;;5025324;28;19925;-70
2022/08/03 01:28:47;;;;;;;;;;;24.70;50.80;;;;;;5029132;28;19925;-70
2022/08/03 01:31:18;;;;;;;;;;;24.60;50.60;;;;;;5011155;28;20011;-70
2022/08/03 01:33:49;;;;;;;;;;;24.60;50.80;;;;;;5019510;28;19925;-69
2022/08/03 01:36:19;;;;;;;;;;;24.60;50.90;;;;;;5017759;28;19929;-69
2022/08/03 01:38:49;;;;;;;;;;;24.50;51.10;;;;;;5038712;28;19929;-70
2022/08/03 01:41:18;;;;;;;;;;;24.50;51.20;;;;;;5022597;28;20409;-71
2022/08/03 01:43:47;;;;;;;;;;;24.50;51.30;;;;;;5024213;28;19932;-69
2022/08/03 01:46:14;;;;;;;;;;;24.50;51.30;;;;;;5015126;28;19953;-72
2022/08/03 01:48:43;;;;;;;;;;;24.40;51.40;;;;;;5039225;28;20389;-71
2022/08/03 01:51:10;;;;;;;;;;;24.40;51.30;;;;;;5014417;28;19932;-70
2022/08/03 01:53:37;;;;;;;;;;;24.40;51.40;;;;;;5019118;28;19932;-70
2022/08/03 01:56:05;;;;;;;;;;;24.30;51.50;;;;;;5029064;28;19936;-71
2022/08/03 01:58:33;;;;;;;;;;;24.30;51.50;;;;;;5023345;28;19925;-69
2022/08/03 02:01:00;;;;;;;;;;;24.30;51.60;;;;;;5015873;28;19925;-69
2022/08/03 02:03:28;;;;;;;;;;;24.30;51.60;;;;;;5031621;28;20371;-70
2022/08/03 02:05:57;;;;;;;;;;;24.30;51.70;;;;;;5033236;28;19925;-70
2022/08/03 02:08:24;;;;;;;;;;;24.20;51.80;;;;;;5020218;28;19926;-70
2022/08/03 02:10:51;;;;;;;;;;;24.20;51.90;;;;;;5037771;28;19937;-70
2022/08/03 02:13:19;;;;;;;;;;;24.20;51.90;;;;;;5041607;28;19925;-69
2022/08/03 02:15:46;;;;;;;;;;;24.10;52.10;;;;;;5017744;28;19929;-70
2022/08/03 02:18:13;;;;;;;;;;;24.10;52.10;;;;;;5019081;28;19930;-69
2022/08/03 02:20:40;;;;;;;;;;;24.10;52.20;;;;;;5023777;28;19930;-71
2022/08/03 02:23:08;;;;;;;;;;;24.00;52.30;;;;;;5029465;28;20424;-69
2022/08/03 02:25:38;;;;;;;;;;;24.00;52.30;;;;;;5043540;28;19940;-69
2022/08/03 02:28:06;;;;;;;;;;;24.00;52.40;;;;;;5026683;28;20448;-70
2022/08/03 02:30:37;;;;;;;;;;;24.00;52.30;;;;;;5035687;28;19971;-70
2022/08/03 02:33:05;;;;;;;;;;;24.00;52.40;;;;;;5017798;28;19941;-70
2022/08/03 02:35:32;;;;;;;;;;;23.90;52.60;;;;;;5024247;28;19933;-69
2022/08/03 02:38:00;;;;;;;;;;;23.90;52.70;;;;;;5022110;28;19931;-69
2022/08/03 02:40:30;;;;;;;;;;;23.90;52.70;;;;;;5030589;28;19925;-70
2022/08/03 02:42:59;;;;;;;;;;;23.80;52.80;;;;;;5018934;28;20428;-69
2022/08/03 02:45:26;;;;;;;;;;;23.80;52.70;;;;;;5022628;28;19933;-69
2022/08/03 02:47:55;;;;;;;;;;;23.80;52.70;;;;;;5023424;28;19929;-70
2022/08/03 02:50:22;;;;;;;;;;;23.80;52.90;;;;;;5029021;28;19929;-69
2022/08/03 02:52:49;;;;;;;;;;;23.70;52.90;;;;;;5019193;28;19926;-70
2022/08/03 02:55:18;;;;;;;;;;;23.70;53.00;;;;;;5025993;28;19948;-69
2022/08/03 02:57:47;;;;;;;;;;;23.70;53.00;;;;;;5036791;28;19925;-70
2022/08/03 03:00:14;;;;;;;;;;;23.60;53.00;;;;;;5022889;28;19963;-71
2022/08/03 03:02:41;;;;;;;;;;;23.70;53.30;;;;;;5024603;28;20011;-71
2022/08/03 03:05:09;;;;;;;;;;;23.60;53.20;;;;;;5040342;28;19932;-70
2022/08/03 03:07:36;;;;;;;;;;;23.60;53.10;;;;;;5026792;28;19935;-69
2022/08/03 03:10:03;;;;;;;;;;;23.60;53.20;;;;;;5039239;28;19931;-70
2022/08/03 03:12:31;;;;;;;;;;;23.60;53.20;;;;;;5042847;28;19925;-69
2022/08/03 03:14:58;;;;;;;;;;;23.50;53.20;;;;;;5026442;28;20360;-70
2022/08/03 03:17:25;;;;;;;;;;;23.50;53.20;;;;;;5025732;28;19929;-72
2022/08/03 03:19:52;;;;;;;;;;;23.40;53.30;;;;;;5016254;28;19929;-69
2022/08/03 03:22:19;;;;;;;;;;;23.40;53.40;;;;;;5036406;28;19925;-70
2022/08/03 03:24:47;;;;;;;;;;;23.40;53.40;;;;;;5042409;28;19925;-69
2022/08/03 03:27:14;;;;;;;;;;;23.40;53.60;;;;;;5046066;28;20483;-72
2022/08/03 03:29:41;;;;;;;;;;;23.40;53.70;;;;;;5031740;28;19933;-71
2022/08/03 03:32:09;;;;;;;;;;;23.30;53.60;;;;;;5018782;28;19935;-69
2022/08/03 03:34:36;;;;;;;;;;;23.30;53.50;;;;;;5022845;28;20317;-69
2022/08/03 03:37:03;;;;;;;;;;;23.30;53.60;;;;;;5036287;28;19929;-70
2022/08/03 03:39:30;;;;;;;;;;;23.30;53.70;;;;;;5030276;28;19976;-72
2022/08/03 03:41:57;;;;;;;;;;;23.20;53.70;;;;;;5031950;28;19925;-71
2022/08/03 03:44:26;;;;;;;;;;;23.20;53.80;;;;;;5022940;28;19929;-69
2022/08/03 03:46:52;;;;;;;;;;;23.20;53.90;;;;;;5019727;28;19929;-70
2022/08/03 03:49:20;;;;;;;;;;;23.20;54.00;;;;;;5032292;28;20021;-71
2022/08/03 03:51:47;;;;;;;;;;;23.10;54.00;;;;;;5029907;28;19968;-72
2022/08/03 03:54:13;;;;;;;;;;;23.10;53.90;;;;;;5029768;28;19944;-71
2022/08/03 03:56:40;;;;;;;;;;;23.10;53.90;;;;;;5039097;28;19935;-70
2022/08/03 03:59:06;;;;;;;;;;;23.00;54.00;;;;;;5019903;28;19926;-70
2022/08/03 04:01:33;;;;;;;;;;;23.00;54.20;;;;;;5019713;28;19984;-69
2022/08/03 04:10:57;;;;;;;;;;;23.00;54.20;;;;;;5029117;28;19932;-71
2022/08/03 04:12:19;;;;;;;;;;;22.90;54.20;;;;;;5032677;28;20019;-70
2022/08/03 04:14:46;;;;;;;;;;;22.90;54.20;;;;;;5029884;28;19931;-70
2022/08/03 04:17:13;;;;;;;;;;;22.90;54.30;;;;;;5018442;28;19931;-70
2022/08/03 04:19:42;;;;;;;;;;;22.80;54.30;;;;;;5028434;28;20024;-70
2022/08/03 04:22:11;;;;;;;;;;;22.80;54.40;;;;;;5026975;28;20468;-69
2022/08/03 04:24:39;;;;;;;;;;;22.80;54.40;;;;;;5040780;28;20316;-70
2022/08/03 04:27:07;;;;;;;;;;;22.80;54.40;;;;;;5041239;28;19936;-70
2022/08/03 04:29:34;;;;;;;;;;;22.70;54.40;;;;;;5025181;28;19933;-71
2022/08/03 04:32:01;;;;;;;;;;;22.70;54.40;;;;;;5020922;28;19928;-70
2022/08/03 04:34:28;;;;;;;;;;;22.70;54.50;;;;;;5025732;28;19925;-69
2022/08/03 04:36:58;;;;;;;;;;;22.70;54.60;;;;;;5024187;28;19929;-68
2022/08/03 04:39:27;;;;;;;;;;;22.70;54.50;;;;;;5027899;28;19937;-69
2022/08/03 04:41:55;;;;;;;;;;;22.60;54.60;;;;;;5038084;28;19933;-70
2022/08/03 04:44:23;;;;;;;;;;;22.60;54.60;;;;;;5021615;28;19929;-69
2022/08/03 04:46:50;;;;;;;;;;;22.60;54.70;;;;;;5020233;28;19940;-69
2022/08/03 04:49:17;;;;;;;;;;;22.60;54.70;;;;;;5029291;28;19936;-71
2022/08/03 04:51:44;;;;;;;;;;;22.50;54.80;;;;;;5032073;28;19932;-70
2022/08/03 04:54:12;;;;;;;;;;;22.60;54.80;;;;;;5029604;28;19932;-70
2022/08/03 04:56:40;;;;;;;;;;;22.50;54.90;;;;;;5040402;28;19924;-70
2022/08/03 04:59:07;;;;;;;;;;;22.50;54.90;;;;;;5021345;28;19972;-70
2022/08/03 05:01:34;;;;;;;;;;;22.50;54.90;;;;;;5017816;28;19933;-71
2022/08/03 05:04:00;;;;;;;;;;;22.50;55.00;;;;;;5029886;28;19932;-70
2022/08/03 05:06:27;;;;;;;;;;;22.40;55.00;;;;;;5031264;28;19929;-70
2022/08/03 05:08:53;;;;;;;;;;;22.40;55.10;;;;;;5029302;28;19933;-69
2022/08/03 05:11:20;;;;;;;;;;;22.40;55.20;;;;;;5039915;28;19929;-70
2022/08/03 05:13:48;;;;;;;;;;;22.40;55.30;;;;;;5042519;28;20344;-70
2022/08/03 05:16:15;;;;;;;;;;;22.40;55.20;;;;;;5020255;28;19925;-70
2022/08/03 05:18:41;;;;;;;;;;;22.40;55.20;;;;;;5021393;28;20320;-70
2022/08/03 05:21:08;;;;;;;;;;;22.30;55.30;;;;;;5035312;28;20411;-69
2022/08/03 05:23:35;;;;;;;;;;;22.30;55.40;;;;;;5029888;28;19925;-71
2022/08/03 05:26:01;;;;;;;;;;;22.30;55.40;;;;;;5047874;28;20515;-69
2022/08/03 05:28:28;;;;;;;;;;;22.30;55.40;;;;;;5024642;28;19925;-69
2022/08/03 05:30:56;;;;;;;;;;;22.20;55.50;;;;;;5022333;28;19948;-69
2022/08/03 05:33:23;;;;;;;;;;;22.30;55.60;;;;;;5029241;28;19932;-72
2022/08/03 05:35:49;;;;;;;;;;;22.20;55.60;;;;;;5031066;28;20356;-70
2022/08/03 05:38:16;;;;;;;;;;;22.20;55.70;;;;;;5029975;28;20294;-69
2022/08/03 05:40:43;;;;;;;;;;;22.20;55.60;;;;;;5035202;28;19929;-71
2022/08/03 05:43:09;;;;;;;;;;;22.20;55.60;;;;;;5026249;28;19925;-70
2022/08/03 05:45:36;;;;;;;;;;;22.20;55.60;;;;;;5019979;28;19947;-71
2022/08/03 05:48:05;;;;;;;;;;;22.20;55.70;;;;;;5035748;28;19928;-69
2022/08/03 05:50:31;;;;;;;;;;;22.20;55.60;;;;;;5021054;28;20416;-70
2022/08/03 05:52:58;;;;;;;;;;;22.20;55.70;;;;;;5019687;28;19929;-69
2022/08/03 05:55:25;;;;;;;;;;;22.20;55.70;;;;;;5036964;28;19933;-71
2022/08/03 05:57:51;;;;;;;;;;;22.10;55.60;;;;;;5034132;28;19929;-71
2022/08/03 06:00:18;;;;;;;;;;;22.20;55.70;;;;;;5016702;28;20424;-70
2022/08/03 06:02:45;;;;;;;;;;;22.20;55.70;;;;;;5016228;28;20389;-70
2022/08/03 06:05:12;;;;;;;;;;;22.20;55.70;;;;;;5035577;28;19926;-71
2022/08/03 06:07:39;;;;;;;;;;;22.20;55.70;;;;;;5028812;28;19925;-69
2022/08/03 06:10:06;;;;;;;;;;;22.20;55.70;;;;;;5036432;28;19952;-70
2022/08/03 06:12:34;;;;;;;;;;;22.20;55.80;;;;;;5041804;28;19932;-69
2022/08/03 06:15:01;;;;;;;;;;;22.20;55.80;;;;;;5025159;28;19930;-66
2022/08/03 06:17:28;;;;;;;;;;;22.20;55.70;;;;;;5016566;28;19947;-71
2022/08/03 06:19:54;;;;;;;;;;;22.20;55.80;;;;;;5024952;28;19929;-69
2022/08/03 06:22:22;;;;;;;;;;;22.20;55.80;;;;;;5032193;28;19931;-70
2022/08/03 06:24:49;;;;;;;;;;;22.20;55.90;;;;;;5038043;28;19925;-69
2022/08/03 06:27:15;;;;;;;;;;;22.20;55.80;;;;;;5038321;28;19925;-69
2022/08/03 06:29:42;;;;;;;;;;;22.20;55.80;;;;;;5023762;28;19925;-70
2022/08/03 06:32:08;;;;;;;;;;;22.20;55.80;;;;;;5015315;28;20001;-71
2022/08/03 06:34:35;;;;;;;;;;;22.20;55.70;;;;;;5026648;28;19949;-70
2022/08/03 06:37:02;;;;;;;;;;;22.20;55.70;;;;;;5027845;28;19936;-69
2022/08/03 06:39:30;;;;;;;;;;;22.20;55.70;;;;;;5028390;28;19932;-70
2022/08/03 06:41:56;;;;;;;;;;;22.30;55.70;;;;;;5039522;28;19925;-71
2022/08/03 06:44:23;;;;;;;;;;;22.20;55.70;;;;;;5023220;28;20008;-69
2022/08/03 06:46:50;;;;;;;;;;;22.30;55.60;;;;;;5017507;28;19932;-71
2022/08/03 06:49:17;;;;;;;;;;;22.30;55.60;;;;;;5028020;28;19935;-69
2022/08/03 06:51:44;;;;;;;;;;;22.30;55.60;;;;;;5027040;28;19929;-72
2022/08/03 06:54:11;;;;;;;;;;;22.30;55.50;;;;;;5025248;28;19960;-73
2022/08/03 06:56:39;;;;;;;;;;;22.30;55.40;;;;;;5039563;28;20351;-69
2022/08/03 06:59:05;;;;;;;;;;;22.40;55.50;;;;;;5016139;28;19929;-70
2022/08/03 07:01:32;;;;;;;;;;;22.40;55.40;;;;;;5015774;28;20435;-72
2022/08/03 07:03:59;;;;;;;;;;;22.40;55.30;;;;;;5025458;28;19925;-70
2022/08/03 07:06:25;;;;;;;;;;;22.40;55.30;;;;;;5033308;28;19933;-70
2022/08/03 07:08:52;;;;;;;;;;;22.40;55.30;;;;;;5021600;28;19937;-69
2022/08/03 07:11:18;;;;;;;;;;;22.50;55.30;;;;;;5041707;28;19924;-70
2022/08/03 07:13:46;;;;;;;;;;;22.50;55.40;;;;;;5031345;28;20522;-71
2022/08/03 07:16:13;;;;;;;;;;;22.50;55.40;;;;;;5016432;28;20405;-70
2022/08/03 07:18:40;;;;;;;;;;;22.50;55.40;;;;;;5019798;28;19925;-71
2022/08/03 07:21:07;;;;;;;;;;;22.60;55.50;;;;;;5029421;28;19932;-69
2022/08/03 07:23:34;;;;;;;;;;;22.60;55.50;;;;;;5025452;28;19983;-70
2022/08/03 07:26:01;;;;;;;;;;;22.70;55.30;;;;;;5045826;28;19967;-70
2022/08/03 07:28:27;;;;;;;;;;;22.60;55.50;;;;;;5022502;28;19925;-69
2022/08/03 07:30:55;;;;;;;;;;;22.70;55.40;;;;;;5014932;28;20309;-68
2022/08/03 07:33:22;;;;;;;;;;;22.70;55.40;;;;;;5021165;28;20566;-69
2022/08/03 07:35:48;;;;;;;;;;;22.80;55.40;;;;;;5029775;28;19932;-70
2022/08/03 07:38:15;;;;;;;;;;;22.80;55.50;;;;;;5028266;28;20456;-71
2022/08/03 07:40:41;;;;;;;;;;;22.90;55.30;;;;;;5027798;28;19929;-70
2022/08/03 07:43:08;;;;;;;;;;;22.80;55.10;;;;;;5023539;28;19925;-69
2022/08/03 07:45:34;;;;;;;;;;;22.80;55.20;;;;;;5020234;28;20345;-70
2022/08/03 07:48:02;;;;;;;;;;;22.90;55.20;;;;;;5040289;28;19935;-70
2022/08/03 07:50:29;;;;;;;;;;;22.90;55.30;;;;;;5017062;28;19926;-70
2022/08/03 07:52:56;;;;;;;;;;;23.00;55.30;;;;;;5021005;28;19929;-70
2022/08/03 07:55:24;;;;;;;;;;;23.00;55.40;;;;;;5042855;28;19940;-70
2022/08/03 07:58:04;;;;;;;;;;;23.00;55.30;;;;;;5036119;28;19931;-69
2022/08/03 08:00:31;;;;;;;;;;;23.10;55.30;;;;;;5024006;28;20694;-70
2022/08/03 08:02:57;;;;;;;;;;;23.10;55.10;;;;;;5027482;28;20393;-69
2022/08/03 08:05:25;;;;;;;;;;;23.20;55.20;;;;;;5035187;28;19952;-70
2022/08/03 08:07:52;;;;;;;;;;;23.20;55.20;;;;;;5029337;28;19925;-70
2022/08/03 08:10:18;;;;;;;;;;;23.30;55.10;;;;;;5035571;28;19932;-70
2022/08/03 08:12:45;;;;;;;;;;;23.30;55.60;;;;;;5031743;28;19930;-71
2022/08/03 08:15:11;;;;;;;;;;;23.30;55.10;;;;;;5024526;28;20424;-70
2022/08/03 08:17:41;;;;;;;;;;;23.40;54.90;;;;;;5022084;28;19925;-70
2022/08/03 08:20:09;;;;;;;;;;;23.40;55.00;;;;;;5029593;28;20080;-70
2022/08/03 08:22:36;;;;;;;;;;;23.40;55.10;;;;;;5032933;28;19929;-70
2022/08/03 08:25:03;;;;;;;;;;;23.50;55.10;;;;;;5041912;28;19929;-70
2022/08/03 08:27:30;;;;;;;;;;;23.50;54.90;;;;;;5035120;28;19929;-69
2022/08/03 08:29:56;;;;;;;;;;;23.60;54.80;;;;;;5017359;28;20330;-70
2022/08/03 08:32:23;;;;;;;;;;;23.60;54.80;;;;;;5024033;28;19925;-69
2022/08/03 08:34:50;;;;;;;;;;;23.70;54.80;;;;;;5038953;28;19925;-69
2022/08/03 08:37:16;;;;;;;;;;;23.70;54.70;;;;;;5036439;28;20531;-70
2022/08/03 08:39:44;;;;;;;;;;;23.70;54.70;;;;;;5032254;28;19926;-71
2022/08/03 08:42:11;;;;;;;;;;;23.80;54.60;;;;;;5030402;28;19936;-73
2022/08/03 08:44:38;;;;;;;;;;;23.80;54.50;;;;;;5020940;28;19932;-70
2022/08/03 08:47:04;;;;;;;;;;;23.90;54.40;;;;;;5025336;28;20402;-70
2022/08/03 08:49:32;;;;;;;;;;;24.00;54.30;;;;;;5026937;28;19936;-70
2022/08/03 08:51:59;;;;;;;;;;;24.00;54.20;;;;;;5018343;28;19936;-69
2022/08/03 08:54:26;;;;;;;;;;;24.00;54.10;;;;;;5034715;28;19929;-71
2022/08/03 08:56:55;;;;;;;;;;;24.10;54.00;;;;;;5039204;28;19933;-70
2022/08/03 08:59:22;;;;;;;;;;;24.20;53.90;;;;;;5016358;28;19925;-70
2022/08/03 09:01:49;;;;;;;;;;;24.20;53.90;;;;;;5023351;28;19932;-70
2022/08/03 09:04:15;;;;;;;;;;;24.30;53.70;;;;;;5033040;28;19931;-70
2022/08/03 09:06:42;;;;;;;;;;;24.30;53.70;;;;;;5026052;28;20531;-70
2022/08/03 09:09:08;;;;;;;;;;;24.40;53.60;;;;;;5023702;28;19925;-70
2022/08/03 09:11:35;;;;;;;;;;;24.50;53.50;;;;;;5042927;28;19928;-70
2022/08/03 09:14:04;;;;;;;;;;;24.50;53.30;;;;;;5031321;28;19971;-70
2022/08/03 09:16:30;;;;;;;;;;;24.60;53.30;;;;;;5024670;28;19932;-69
2022/08/03 09:19:11;;;;;;;;;;;24.60;53.20;;;;;;5015607;28;19925;-70
2022/08/03 09:21:37;;;;;;;;;;;24.70;53.00;;;;;;5030576;28;19968;-70
2022/08/03 09:24:05;;;;;;;;;;;24.70;52.80;;;;;;5035706;28;19932;-70
2022/08/03 09:26:33;;;;;;;;;;;24.90;52.80;;;;;;5044748;28;19925;-71
2022/08/03 09:29:00;;;;;;;;;;;24.90;52.70;;;;;;5013505;28;19947;-70
2022/08/03 09:31:32;;;;;;;;;;;24.90;52.30;;;;;;5012351;28;19929;-69
2022/08/03 09:34:01;;;;;;;;;;;25.00;52.10;;;;;;5034016;28;19929;-70
2022/08/03 09:36:34;;;;;;;;;;;25.10;52.10;;;;;;5022041;28;19951;-70
2022/08/03 09:39:01;;;;;;;;;;;25.20;52.00;;;;;;5025625;28;19928;-70
2022/08/03 09:41:28;;;;;;;;;;;25.30;52.00;;;;;;5029854;28;19929;-70
2022/08/03 09:43:55;;;;;;;;;;;25.30;51.80;;;;;;5021135;28;19925;-71
2022/08/03 09:46:22;;;;;;;;;;;25.40;51.90;;;;;;5021210;28;19925;-70
2022/08/03 09:48:50;;;;;;;;;;;25.50;51.70;;;;;;5028891;28;19925;-70
2022/08/03 09:51:18;;;;;;;;;;;25.60;51.60;;;;;;5026489;28;19929;-69
2022/08/03 09:53:45;;;;;;;;;;;25.60;51.40;;;;;;5021065;28;19929;-70
2022/08/03 09:56:11;;;;;;;;;;;25.70;51.20;;;;;;5029200;28;19924;-70
2022/08/03 09:58:44;;;;;;;;;;;25.80;51.10;;;;;;5023726;28;19944;-70
2022/08/03 10:01:11;;;;;;;;;;;25.90;50.90;;;;;;5018907;28;19929;-72
2022/08/03 10:03:38;;;;;;;;;;;26.00;50.80;;;;;;5023291;28;19949;-70
2022/08/03 10:06:15;;;;;;;;;;;26.00;50.60;;;;;;5030909;28;19936;-70
2022/08/03 10:08:42;;;;;;;;;;;26.10;50.50;;;;;;5020873;28;20019;-72
2022/08/03 10:11:09;;;;;;;;;;;26.20;50.40;;;;;;5042592;28;19925;-71
2022/08/03 10:13:36;;;;;;;;;;;26.30;50.20;;;;;;5033294;28;19952;-71
2022/08/03 10:16:03;;;;;;;;;;;26.40;50.10;;;;;;5020994;28;19929;-71
2022/08/03 10:18:29;;;;;;;;;;;26.50;50.00;;;;;;5024160;28;19964;-70
2022/08/03 10:21:00;;;;;;;;;;;26.50;49.80;;;;;;5030274;28;19924;-71
2022/08/03 10:23:28;;;;;;;;;;;26.60;49.70;;;;;;5033398;28;19925;-71
2022/08/03 10:25:57;;;;;;;;;;;26.70;49.60;;;;;;5042375;28;19932;-70
2022/08/03 10:28:24;;;;;;;;;;;26.70;49.40;;;;;;5020601;28;20689;-70
2022/08/03 10:30:53;;;;;;;;;;;26.80;49.20;;;;;;5017463;28;19929;-69
2022/08/03 10:33:21;;;;;;;;;;;26.90;49.10;;;;;;5028608;28;19924;-71
2022/08/03 10:35:50;;;;;;;;;;;27.00;49.00;;;;;;5034855;28;19925;-71
2022/08/03 10:38:17;;;;;;;;;;;27.10;48.90;;;;;;5036458;28;19933;-71
2022/08/03 10:40:45;;;;;;;;;;;27.10;48.70;;;;;;5037319;28;19929;-73
2022/08/03 10:43:18;;;;;;;;;;;27.20;48.60;;;;;;5022754;28;19925;-71
2022/08/03 10:45:45;;;;;;;;;;;27.30;48.50;;;;;;5017894;28;19937;-72
2022/08/03 10:48:13;;;;;;;;;;;27.40;48.30;;;;;;5023442;28;19932;-70
2022/08/03 10:50:42;;;;;;;;;;;27.50;48.30;;;;;;5027052;28;20389;-70
2022/08/03 10:53:08;;;;;;;;;;;27.60;48.20;;;;;;5019034;28;20447;-70
2022/08/03 10:58:38;;;;;;;;;;;27.80;47.90;;;;;;5015994;28;19928;-71
2022/08/03 11:01:06;;;;;;;;;;;27.80;47.70;;;;;;5015985;28;19957;-72
2022/08/03 11:03:33;;;;;;;;;;;27.90;47.50;;;;;;5018874;28;20412;-69
2022/08/03 11:06:15;;;;;;;;;;;28.00;47.20;;;;;;5030574;28;20076;-71
2022/08/03 11:08:42;;;;;;;;;;;28.00;47.10;;;;;;5017857;28;19926;-72
2022/08/03 11:11:23;;;;;;;;;;;28.10;47.10;;;;;;5039002;28;19925;-70
2022/08/03 11:13:57;;;;;;;;;;;28.20;47.00;;;;;;5040445;28;19983;-72
2022/08/03 11:16:27;;;;;;;;;;;28.30;47.00;;;;;;5020090;28;19933;-70
2022/08/03 11:18:55;;;;;;;;;;;28.30;47.00;;;;;;5021521;28;19935;-70
2022/08/03 11:21:42;;;;;;;;;;;28.40;46.70;;;;;;5023289;28;20377;-70
2022/08/03 11:24:08;;;;;;;;;;;28.50;46.30;;;;;;5034013;28;19947;-71
2022/08/03 11:26:35;;;;;;;;;;;28.60;46.20;;;;;;5025052;28;19925;-71
2022/08/03 11:29:20;;;;;;;;;;;28.60;46.00;;;;;;5027656;28;19926;-71
2022/08/03 11:31:48;;;;;;;;;;;28.70;46.00;;;;;;5022354;28;19933;-72
2022/08/03 11:34:16;;;;;;;;;;;28.80;45.90;;;;;;5033282;28;19932;-70
2022/08/03 11:37:01;;;;;;;;;;;28.90;45.80;;;;;;5025026;28;19926;-69
2022/08/03 11:39:37;;;;;;;;;;;29.00;45.70;;;;;;5033482;28;19929;-70
2022/08/03 11:42:19;;;;;;;;;;;29.10;45.70;;;;;;5020591;28;19929;-71
2022/08/03 11:44:46;;;;;;;;;;;29.10;46.20;;;;;;5022163;28;19930;-70
2022/08/03 11:47:16;;;;;;;;;;;29.20;45.20;;;;;;5021037;28;19925;-71
2022/08/03 11:49:43;;;;;;;;;;;29.30;45.00;;;;;;5020603;28;19925;-71
2022/08/03 11:52:10;;;;;;;;;;;29.40;44.90;;;;;;5035745;28;19925;-70
2022/08/03 11:54:36;;;;;;;;;;;29.40;44.80;;;;;;5021685;28;20361;-71
2022/08/03 11:57:03;;;;;;;;;;;29.50;44.70;;;;;;5036965;28;19939;-69
2022/08/03 11:59:32;;;;;;;;;;;29.60;44.60;;;;;;5018953;28;19925;-70
2022/08/03 12:02:05;;;;;;;;;;;29.70;44.50;;;;;;5022047;28;19929;-70
2022/08/03 12:04:48;;;;;;;;;;;29.70;44.40;;;;;;5040084;28;19926;-70
2022/08/03 12:07:16;;;;;;;;;;;29.80;44.30;;;;;;5023867;28;19933;-70
2022/08/03 12:09:43;;;;;;;;;;;29.90;44.10;;;;;;5035431;28;19925;-71
2022/08/03 12:12:09;;;;;;;;;;;29.90;43.90;;;;;;5034588;28;19925;-70
2022/08/03 12:14:36;;;;;;;;;;;30.00;43.70;;;;;;5024253;28;19934;-71
2022/08/03 12:17:02;;;;;;;;;;;30.10;43.60;;;;;;5022289;28;20007;-69
2022/08/03 12:19:41;;;;;;;;;;;30.10;43.10;;;;;;5024565;28;19971;-72
2022/08/03 12:22:07;;;;;;;;;;;30.20;43.30;;;;;;5035843;28;19932;-70
2022/08/03 12:24:40;;;;;;;;;;;30.30;43.20;;;;;;5039001;28;19929;-73
2022/08/03 12:27:07;;;;;;;;;;;30.30;43.10;;;;;;5037760;28;19965;-71
2022/08/03 12:29:33;;;;;;;;;;;30.30;42.90;;;;;;5019192;28;19929;-71
2022/08/03 12:32:00;;;;;;;;;;;30.40;42.80;;;;;;5023973;28;19929;-70
2022/08/03 12:34:41;;;;;;;;;;;30.50;42.90;;;;;;5044572;28;19929;-70
2022/08/03 12:37:09;;;;;;;;;;;30.50;42.90;;;;;;5034177;28;20382;-70
2022/08/03 12:39:35;;;;;;;;;;;30.60;42.40;;;;;;5030627;28;19951;-71
2022/08/03 12:42:02;;;;;;;;;;;30.60;42.50;;;;;;5038064;28;19925;-70
2022/08/03 12:44:30;;;;;;;;;;;30.70;42.10;;;;;;5025093;28;19932;-70
2022/08/03 12:46:57;;;;;;;;;;;30.70;42.30;;;;;;5024826;28;20000;-70
2022/08/03 12:49:24;;;;;;;;;;;30.70;42.20;;;;;;5032342;28;19935;-72
2022/08/03 12:51:58;;;;;;;;;;;30.80;42.10;;;;;;5021686;28;19929;-71
2022/08/03 12:54:26;;;;;;;;;;;30.90;42.10;;;;;;5031074;28;19929;-71
2022/08/03 12:57:00;;;;;;;;;;;31.00;41.90;;;;;;5043385;28;19925;-70
2022/08/03 12:59:27;;;;;;;;;;;31.00;41.80;;;;;;5015477;28;20345;-70
2022/08/03 13:01:54;;;;;;;;;;;31.10;41.90;;;;;;5019085;28;20270;-71
2022/08/03 13:04:27;;;;;;;;;;;31.20;41.90;;;;;;5039310;28;19947;-70
2022/08/03 13:06:56;;;;;;;;;;;31.20;41.70;;;;;;5025803;28;19925;-71
2022/08/03 13:09:25;;;;;;;;;;;31.30;41.60;;;;;;5033477;28;19964;-70
2022/08/03 13:12:06;;;;;;;;;;;31.30;41.50;;;;;;5041604;28;20024;-72
2022/08/03 13:14:32;;;;;;;;;;;31.40;41.20;;;;;;5034287;28;19925;-71
2022/08/03 13:16:59;;;;;;;;;;;31.50;41.20;;;;;;5017524;28;20012;-70
2022/08/03 13:19:26;;;;;;;;;;;31.50;41.20;;;;;;5024946;28;20405;-72
2022/08/03 13:21:52;;;;;;;;;;;31.60;41.20;;;;;;5024113;28;19932;-71
2022/08/03 13:24:19;;;;;;;;;;;31.70;41.10;;;;;;5036728;28;19929;-70
2022/08/03 13:26:46;;;;;;;;;;;31.70;41.00;;;;;;5037483;28;19926;-72
2022/08/03 13:29:13;;;;;;;;;;;31.80;40.90;;;;;;5025851;28;19929;-72
2022/08/03 13:31:40;;;;;;;;;;;31.80;40.80;;;;;;5025249;28;19929;-70
2022/08/03 13:34:06;;;;;;;;;;;31.90;40.80;;;;;;5038586;28;20340;-71
2022/08/03 13:36:33;;;;;;;;;;;32.00;40.70;;;;;;5019963;28;20670;-70
2022/08/03 13:38:59;;;;;;;;;;;32.00;40.30;;;;;;5033046;28;20396;-71
2022/08/03 13:41:26;;;;;;;;;;;32.10;40.00;;;;;;5029013;28;19929;-70
2022/08/03 13:43:55;;;;;;;;;;;32.10;40.10;;;;;;5019370;28;19925;-70
2022/08/03 13:46:23;;;;;;;;;;;32.20;39.40;;;;;;5018170;28;19925;-71
2022/08/03 13:48:49;;;;;;;;;;;32.30;40.00;;;;;;5032568;28;20444;-69
2022/08/03 13:51:16;;;;;;;;;;;32.30;39.80;;;;;;5023603;28;20412;-71
2022/08/03 13:53:42;;;;;;;;;;;32.40;39.60;;;;;;5023159;28;19925;-71
2022/08/03 13:56:09;;;;;;;;;;;32.40;39.70;;;;;;5029580;28;19932;-69
2022/08/03 13:58:35;;;;;;;;;;;32.50;40.40;;;;;;5023409;28;19936;-70
2022/08/03 14:01:02;;;;;;;;;;;32.60;39.90;;;;;;5020341;28;19932;-72
2022/08/03 14:03:30;;;;;;;;;;;32.60;39.60;;;;;;5025908;28;19951;-71
2022/08/03 14:05:56;;;;;;;;;;;32.70;39.40;;;;;;5034071;28;19933;-72
2022/08/03 14:08:23;;;;;;;;;;;32.80;39.00;;;;;;5023694;28;19933;-70
2022/08/03 14:10:49;;;;;;;;;;;32.80;38.80;;;;;;5037693;28;20305;-71
2022/08/03 14:13:16;;;;;;;;;;;32.90;38.90;;;;;;5043824;28;19932;-70
2022/08/03 14:15:43;;;;;;;;;;;32.90;38.80;;;;;;5024227;28;19925;-70
2022/08/03 14:18:10;;;;;;;;;;;33.00;38.80;;;;;;5016921;28;19926;-72
2022/08/03 14:20:38;;;;;;;;;;;33.10;38.60;;;;;;5017873;28;19929;-70
2022/08/03 14:23:05;;;;;;;;;;;33.20;38.60;;;;;;5031953;28;19929;-70
2022/08/03 14:25:32;;;;;;;;;;;33.20;38.20;;;;;;5043181;28;19932;-71
2022/08/03 14:27:58;;;;;;;;;;;33.30;38.10;;;;;;5039653;28;20438;-70
2022/08/03 14:30:25;;;;;;;;;;;33.40;38.20;;;;;;5021235;28;22123;-71